Time,TemperatureF,DewpointF,PressureIn,WindDirection,WindDirectionDegrees,WindSpeedMPH,WindSpeedGustMPH,Humidity,HourlyPrecipIn,Conditions,Clouds,dailyrainin,SolarRadiationWatts/m^2,SoftwareType,DateUTC
2013-01-01 00:00:00,35.6,34.0,29.30,NE,38,1.2,0.0,94,0.02,FEW,OVC,0.30,0.0,WeatherDisplay:10.37,2013-01-01 00:00:00,
2013-01-01 00:05:00,35.6,34.0,29.30,NNE,27,1.2,1.2,94,0.01,RA,OVC,0.00,0.0,WeatherDisplay:10.37,2013-01-01 00:05:00,
2013-01-01 00:10:00,35.6,34.0,29.30,WNW,297,1.2,0.0,94,0.01,RA,OVC,0.00,0.0,WeatherDisplay:10.37,2013-01-01 00:10:00,
2013-01-01 00:15:00,35.6,34.0,29.30,NNW,343,1.2,1.2,94,0.01,FEW,OVC,0.00,0.0,WeatherDisplay:10.37,2013-01-01 00:15:00,
2013-01-01 00:20:00,35.7,34.1,29.30,NNW,336,0.0,1.0,94,0.00,FEW,OVC,0.00,0.0,WeatherDisplay:10.37,2013-01-01 00:20:00,
2013-01-01 00:25:00,35.7,34.1,29.31,NNW,342,0.0,1.0,94,0.00,FEW,OVC,0.00,0.0,WeatherDisplay:10.37,2013-01-01 00:25:00,
2013-01-01 00:30:00,35.7,34.1,29.31,NNW,337,0.0,1.0,94,0.00,RA,OVC,0.01,0.0,WeatherDisplay:10.37,2013-01-01 00:30:00,
2013-01-01 00:35:00,35.8,34.2,29.30,NW,315,0.0,2.0,94,0.00,RA,OVC,0.02,0.0,WeatherDisplay:10.37,2013-01-01 00:35:00,
2013-01-01 00:40:00,35.8,34.2,29.30,NW,307,0.0,0.0,94,0.02,RA,OVC,0.02,0.0,WeatherDisplay:10.37,2013-01-01 00:40:00,
2013-01-01 00:45:00,35.8,34.2,29.30,NW,316,0.0,0.0,94,0.02,FEW,OVC,0.02,0.0,WeatherDisplay:10.37,2013-01-01 00:45:00,
2013-01-01 00:50:00,35.8,34.2,29.30,NW,309,0.0,1.0,94,0.00,FEW,OVC,0.02,0.0,WeatherDisplay:10.37,2013-01-01 00:50:00,
2013-01-01 00:55:00,35.9,34.3,29.30,NW,314,0.0,0.5,94,0.02,RA,OVC,0.02,0.0,WeatherDisplay:10.37,2013-01-01 00:55:00,
2013-01-01 01:00:00,35.9,34.3,29.30,NNW,344,0.0,1.0,94,0.00,RA,OVC,0.03,0.0,WeatherDisplay:10.37,2013-01-01 01:00:00,
2013-01-01 01:05:00,35.9,34.3,29.31,WNW,300,1.2,1.2,94,0.03,RA,OVC,0.03,0.0,WeatherDisplay:10.37,2013-01-01 01:05:00,
2013-01-01 01:10:00,35.9,34.4,29.31,NW,312,0.0,1.0,94,0.00,RA,OVC,0.04,0.0,WeatherDisplay:10.37,2013-01-01 01:10:00,
2013-01-01 01:15:00,36.1,34.5,29.31,NNW,333,1.0,3.0,94,0.01,RA,OVC,0.05,0.0,WeatherDisplay:10.37,2013-01-01 01:15:00,
2013-01-01 01:20:00,36.0,34.5,29.31,NW,315,1.0,3.0,94,0.00,RA,OVC,0.07,0.0,WeatherDisplay:10.37,2013-01-01 01:20:00,
2013-01-01 01:25:00,35.9,34.3,29.31,NE,49,3.5,3.5,94,0.07,RA,OVC,0.07,0.0,WeatherDisplay:10.37,2013-01-01 01:25:00,
2013-01-01 01:30:00,35.8,34.3,29.31,NNW,346,1.0,2.0,94,0.00,FEW,OVC,0.07,0.0,WeatherDisplay:10.37,2013-01-01 01:30:00,
2013-01-01 01:35:00,35.8,34.2,29.31,NNW,333,0.0,1.0,94,0.00,FEW,OVC,0.07,0.0,WeatherDisplay:10.37,2013-01-01 01:35:00,
2013-01-01 01:40:00,35.6,34.0,29.31,WNW,302,0.0,0.0,94,0.06,FEW,OVC,0.07,0.0,WeatherDisplay:10.37,2013-01-01 01:40:00,
2013-01-01 01:45:00,35.3,33.5,29.31,WNW,302,0.0,1.0,93,0.00,FEW,OVC,0.07,0.0,WeatherDisplay:10.37,2013-01-01 01:45:00,
2013-01-01 01:50:00,35.0,33.4,29.31,WNW,302,0.0,0.0,94,0.06,FEW,OVC,0.07,0.0,WeatherDisplay:10.37,2013-01-01 01:50:00,
2013-01-01 01:55:00,34.8,33.2,29.32,WNW,302,0.0,0.0,94,0.05,FEW,OVC,0.07,0.0,WeatherDisplay:10.37,2013-01-01 01:55:00,
2013-01-01 02:00:00,34.6,33.1,29.31,WNW,302,0.0,0.0,94,0.00,FEW,OVC,0.07,0.0,WeatherDisplay:10.37,2013-01-01 02:00:00,
2013-01-01 02:05:00,34.3,32.8,29.32,WNW,302,0.0,0.0,94,0.04,FEW,OVC,0.07,0.0,WeatherDisplay:10.37,2013-01-01 02:05:00,
2013-01-01 02:10:00,34.2,32.7,29.32,WNW,302,0.0,0.0,94,0.00,FEW,OVC,0.07,0.0,WeatherDisplay:10.37,2013-01-01 02:10:00,
2013-01-01 02:15:00,34.4,33.1,29.32,WNW,302,0.0,0.0,95,0.02,FEW,OVC,0.07,0.0,WeatherDisplay:10.37,2013-01-01 02:15:00,
2013-01-01 02:20:00,34.3,33.0,29.32,WNW,302,0.0,0.0,95,0.00,FEW,OVC,0.07,0.0,WeatherDisplay:10.37,2013-01-01 02:20:00,
2013-01-01 02:25:00,34.1,32.6,29.32,WNW,302,0.0,0.0,94,0.00,FEW,OVC,0.07,0.0,WeatherDisplay:10.37,2013-01-01 02:25:00,
2013-01-01 02:30:00,34.0,32.7,29.32,WNW,302,0.0,0.0,95,0.00,FEW,OVC,0.07,0.0,WeatherDisplay:10.37,2013-01-01 02:30:00,
2013-01-01 02:35:00,33.9,32.6,29.32,WNW,302,0.0,0.0,95,0.00,FEW,OVC,0.07,0.0,WeatherDisplay:10.37,2013-01-01 02:35:00,
2013-01-01 02:40:00,33.8,32.5,29.33,WNW,302,0.0,0.0,95,0.00,FEW,OVC,0.07,0.0,WeatherDisplay:10.37,2013-01-01 02:40:00,
2013-01-01 02:45:00,33.7,32.4,29.32,WNW,302,0.0,0.0,95,0.00,FEW,OVC,0.07,0.0,WeatherDisplay:10.37,2013-01-01 02:45:00,
2013-01-01 02:50:00,33.5,32.2,29.33,WNW,302,0.0,0.0,95,0.00,FEW,OVC,0.07,0.0,WeatherDisplay:10.37,2013-01-01 02:50:00,
2013-01-01 02:55:00,33.3,31.8,29.32,WNW,302,0.0,0.0,94,0.00,FEW,OVC,0.07,0.0,WeatherDisplay:10.37,2013-01-01 02:55:00,
2013-01-01 03:00:00,33.3,32.0,29.32,WNW,302,0.0,0.0,95,0.00,FEW,OVC,0.07,0.0,WeatherDisplay:10.37,2013-01-01 03:00:00,
2013-01-01 03:05:00,33.3,32.0,29.33,WNW,302,0.0,0.0,95,0.00,BKN,OVC,0.07,0.0,WeatherDisplay:10.37,2013-01-01 03:05:00,
2013-01-01 03:10:00,33.5,32.2,29.33,WNW,302,0.0,0.0,95,0.00,BKN,OVC,0.07,0.0,WeatherDisplay:10.37,2013-01-01 03:10:00,
2013-01-01 03:15:00,33.8,32.5,29.32,WNW,302,0.0,0.0,95,0.00,BKN,OVC,0.07,0.0,WeatherDisplay:10.37,2013-01-01 03:15:00,
2013-01-01 03:20:00,33.9,32.6,29.32,WNW,302,0.0,0.0,95,0.00,BKN,OVC,0.07,0.0,WeatherDisplay:10.37,2013-01-01 03:20:00,
2013-01-01 03:25:00,34.0,32.7,29.32,WNW,302,0.0,0.0,95,0.00,BKN,OVC,0.07,0.0,WeatherDisplay:10.37,2013-01-01 03:25:00,
2013-01-01 03:30:00,34.2,32.9,29.32,WNW,302,0.0,0.0,95,0.00,BKN,OVC,0.07,0.0,WeatherDisplay:10.37,2013-01-01 03:30:00,
2013-01-01 03:35:00,34.3,33.0,29.33,WNW,303,0.0,0.0,95,0.00,FEW,OVC,0.07,0.0,WeatherDisplay:10.37,2013-01-01 03:35:00,
2013-01-01 03:40:00,34.6,33.3,29.33,SE,133,1.2,1.2,95,0.00,FEW,OVC,0.07,0.0,WeatherDisplay:10.37,2013-01-01 03:40:00,
2013-01-01 03:45:00,34.8,33.5,29.33,ESE,115,2.0,2.0,95,0.00,FEW,OVC,0.07,0.0,WeatherDisplay:10.37,2013-01-01 03:45:00,
2013-01-01 03:50:00,35.1,33.8,29.33,ESE,102,1.2,1.2,95,0.00,FEW,OVC,0.07,0.0,WeatherDisplay:10.37,2013-01-01 03:50:00,
2013-01-01 03:55:00,35.3,34.0,29.33,ESE,113,1.2,1.2,95,0.00,FEW,OVC,0.07,0.0,WeatherDisplay:10.37,2013-01-01 03:55:00,
2013-01-01 04:00:00,35.5,34.2,29.33,East,101,3.5,3.5,95,0.01,RA,OVC,0.08,0.0,WeatherDisplay:10.37,2013-01-01 04:00:00,
2013-01-01 04:05:00,35.7,34.4,29.33,SE,127,2.3,2.3,95,0.01,RA,OVC,0.08,0.0,WeatherDisplay:10.37,2013-01-01 04:05:00,
2013-01-01 04:10:00,35.8,34.2,29.34,SE,139,1.2,1.2,94,0.01,BKN,OVC,0.08,0.0,WeatherDisplay:10.37,2013-01-01 04:10:00,
2013-01-01 04:15:00,35.9,34.3,29.34,ESE,122,1.2,1.2,94,0.01,BKN,OVC,0.08,0.0,WeatherDisplay:10.37,2013-01-01 04:15:00,
2013-01-01 04:20:00,36.0,34.4,29.34,ESE,115,2.3,2.3,94,0.01,BKN,OVC,0.08,0.0,WeatherDisplay:10.37,2013-01-01 04:20:00,
2013-01-01 04:25:00,36.0,34.4,29.34,ESE,115,1.2,1.2,94,0.01,BKN,OVC,0.08,0.0,WeatherDisplay:10.37,2013-01-01 04:25:00,
2013-01-01 04:30:00,36.1,34.5,29.34,ESE,115,1.2,1.2,94,0.01,BKN,OVC,0.08,0.0,WeatherDisplay:10.37,2013-01-01 04:30:00,
2013-01-01 04:35:00,36.2,34.6,29.34,ESE,115,0.0,0.0,94,0.01,FEW,OVC,0.08,0.0,WeatherDisplay:10.37,2013-01-01 04:35:00,
2013-01-01 04:40:00,36.1,34.5,29.34,ESE,115,0.0,0.0,94,0.01,FEW,OVC,0.08,0.0,WeatherDisplay:10.37,2013-01-01 04:40:00,
2013-01-01 04:45:00,36.0,34.2,29.34,SSE,156,0.0,0.0,93,0.01,FEW,OVC,0.08,0.0,WeatherDisplay:10.37,2013-01-01 04:45:00,
2013-01-01 04:50:00,35.9,34.3,29.34,SSE,157,0.0,0.0,94,0.01,FEW,OVC,0.08,0.0,WeatherDisplay:10.37,2013-01-01 04:50:00,
2013-01-01 04:55:00,35.8,34.2,29.34,SSE,156,0.0,0.0,94,0.01,FEW,OVC,0.08,0.0,WeatherDisplay:10.37,2013-01-01 04:55:00,
2013-01-01 05:00:00,35.7,34.1,29.34,SSE,156,0.0,0.0,94,0.00,FEW,OVC,0.08,0.0,WeatherDisplay:10.37,2013-01-01 05:00:00,
2013-01-01 05:01:00,35.6,34.0,29.34,SSE,156,0.0,0.0,94,0.00,FEW,OVC,0.08,0.0,WeatherDisplay:10.37,2013-01-01 05:01:00,
2013-01-01 05:03:00,35.6,34.0,29.34,WNW,302,1.2,1.2,94,0.00,FEW,OVC,0.08,0.0,WeatherDisplay:10.37,2013-01-01 05:03:00,
2013-01-01 05:08:00,35.6,34.0,29.34,NW,307,1.2,1.2,94,0.00,SCT,OVC,0.08,0.0,WeatherDisplay:10.37,2013-01-01 05:08:00,
2013-01-01 05:13:00,35.8,34.2,29.35,WNW,301,1.2,1.2,94,0.00,SCT,OVC,0.08,0.0,WeatherDisplay:10.37,2013-01-01 05:13:00,
2013-01-01 05:18:00,35.9,34.3,29.35,WNW,303,4.0,4.0,94,0.00,SCT,OVC,0.08,0.0,WeatherDisplay:10.37,2013-01-01 05:18:00,
2013-01-01 05:23:00,36.3,34.7,29.35,SSW,205,1.2,0.0,94,0.00,SCT,OVC,0.08,0.0,WeatherDisplay:10.37,2013-01-01 05:23:00,
2013-01-01 05:28:00,36.7,34.9,29.35,North,357,3.5,3.5,93,0.00,SCT,OVC,0.08,0.0,WeatherDisplay:10.37,2013-01-01 05:28:00,
2013-01-01 05:33:00,36.8,35.0,29.35,NNW,345,2.3,2.3,93,0.00,SCT,OVC,0.08,0.0,WeatherDisplay:10.37,2013-01-01 05:33:00,
2013-01-01 05:38:00,36.9,34.8,29.35,NNW,340,2.3,2.3,92,0.00,SCT,OVC,0.08,0.0,WeatherDisplay:10.37,2013-01-01 05:38:00,
2013-01-01 05:43:00,37.0,34.9,29.35,NNW,340,2.3,2.3,92,0.00,SCT,OVC,0.08,0.0,WeatherDisplay:10.37,2013-01-01 05:43:00,
2013-01-01 05:48:00,37.3,35.2,29.35,NNW,348,2.3,2.3,92,0.00,SCT,OVC,0.08,0.0,WeatherDisplay:10.37,2013-01-01 05:48:00,
2013-01-01 05:53:00,37.4,35.3,29.35,NE,53,2.3,2.3,92,0.00,SCT,OVC,0.08,0.0,WeatherDisplay:10.37,2013-01-01 05:53:00,
2013-01-01 05:58:00,37.6,35.5,29.35,NW,305,3.5,3.5,92,0.00,SCT,OVC,0.08,0.0,WeatherDisplay:10.37,2013-01-01 05:58:00,
2013-01-01 06:03:00,37.7,35.6,29.36,NW,326,3.5,3.5,92,0.00,SCT,OVC,0.08,0.0,WeatherDisplay:10.37,2013-01-01 06:03:00,
2013-01-01 06:08:00,37.7,35.6,29.36,North,356,2.3,2.3,92,0.00,SCT,OVC,0.08,0.0,WeatherDisplay:10.37,2013-01-01 06:08:00,
2013-01-01 06:13:00,37.8,35.4,29.36,NNW,343,1.2,1.2,91,0.00,SCT,OVC,0.08,0.0,WeatherDisplay:10.37,2013-01-01 06:13:00,
2013-01-01 06:18:00,37.7,35.3,29.36,North,8,1.2,1.2,91,0.00,SCT,OVC,0.08,0.0,WeatherDisplay:10.37,2013-01-01 06:18:00,
2013-01-01 06:23:00,37.6,35.2,29.36,NNE,30,1.2,1.2,91,0.00,FEW,OVC,0.08,0.0,WeatherDisplay:10.37,2013-01-01 06:23:00,
2013-01-01 06:28:00,37.5,35.4,29.36,WNW,288,1.2,1.2,92,0.00,FEW,OVC,0.08,0.0,WeatherDisplay:10.37,2013-01-01 06:28:00,
2013-01-01 06:33:00,37.3,35.2,29.37,NW,311,1.2,1.2,92,0.00,FEW,OVC,0.08,0.0,WeatherDisplay:10.37,2013-01-01 06:33:00,
2013-01-01 06:38:00,37.3,35.2,29.37,SSE,155,1.2,1.2,92,0.00,FEW,OVC,0.08,0.0,WeatherDisplay:10.37,2013-01-01 06:38:00,
2013-01-01 06:43:00,37.5,35.4,29.37,NNW,332,1.2,1.2,92,0.00,FEW,OVC,0.08,0.0,WeatherDisplay:10.37,2013-01-01 06:43:00,
2013-01-01 06:48:00,37.5,35.4,29.37,NNE,22,1.2,1.2,92,0.00,FEW,OVC,0.08,0.0,WeatherDisplay:10.37,2013-01-01 06:48:00,
2013-01-01 06:53:00,37.6,35.2,29.37,NE,44,1.2,0.0,91,0.00,FEW,OVC,0.08,0.0,WeatherDisplay:10.37,2013-01-01 06:53:00,
2013-01-01 06:58:00,37.7,35.3,29.37,North,351,1.2,1.2,91,0.00,FEW,OVC,0.08,0.0,WeatherDisplay:10.37,2013-01-01 06:58:00,
2013-01-01 07:03:00,37.6,35.2,29.38,NW,314,0.0,0.0,91,0.00,FEW,OVC,0.08,0.0,WeatherDisplay:10.37,2013-01-01 07:03:00,
2013-01-01 07:08:00,37.6,35.2,29.38,ENE,75,1.2,0.0,91,0.00,FEW,OVC,0.08,0.0,WeatherDisplay:10.37,2013-01-01 07:08:00,
2013-01-01 07:13:00,37.5,35.1,29.38,East,89,1.2,1.2,91,0.00,FEW,OVC,0.08,0.0,WeatherDisplay:10.37,2013-01-01 07:13:00,
2013-01-01 07:18:00,37.4,35.3,29.38,ENE,61,1.2,1.2,92,0.00,FEW,OVC,0.08,0.0,WeatherDisplay:10.37,2013-01-01 07:18:00,
2013-01-01 07:23:00,37.5,35.4,29.39,SE,136,0.0,0.0,92,0.00,FEW,OVC,0.08,0.0,WeatherDisplay:10.37,2013-01-01 07:23:00,
2013-01-01 07:28:00,37.4,35.3,29.39,ESE,117,1.2,1.2,92,0.00,FEW,OVC,0.08,0.0,WeatherDisplay:10.37,2013-01-01 07:28:00,
2013-01-01 07:33:00,37.2,35.1,29.39,ESE,114,1.2,1.2,92,0.00,FEW,OVC,0.08,0.0,WeatherDisplay:10.37,2013-01-01 07:33:00,
2013-01-01 07:38:00,37.2,35.1,29.39,SE,129,1.2,0.0,92,0.00,FEW,OVC,0.08,0.0,WeatherDisplay:10.37,2013-01-01 07:38:00,
2013-01-01 07:43:00,37.3,35.5,29.39,SE,129,0.0,0.0,93,0.00,FEW,OVC,0.08,0.0,WeatherDisplay:10.37,2013-01-01 07:43:00,
2013-01-01 07:48:00,37.4,35.6,29.39,SSE,154,1.2,1.2,93,0.00,FEW,OVC,0.08,0.0,WeatherDisplay:10.37,2013-01-01 07:48:00,
2013-01-01 07:53:00,37.4,35.6,29.40,SE,131,1.2,1.2,93,0.00,FEW,OVC,0.08,0.0,WeatherDisplay:10.37,2013-01-01 07:53:00,
2013-01-01 07:58:00,37.5,35.7,29.40,SE,131,1.2,0.0,93,0.00,FEW,OVC,0.08,0.0,WeatherDisplay:10.37,2013-01-01 07:58:00,
2013-01-01 08:03:00,37.8,36.0,29.40,NNE,19,1.2,0.0,93,0.00,FEW,OVC,0.08,0.0,WeatherDisplay:10.37,2013-01-01 08:03:00,
2013-01-01 08:08:00,38.0,35.9,29.41,West,274,1.2,1.2,92,0.00,FEW,OVC,0.08,0.0,WeatherDisplay:10.37,2013-01-01 08:08:00,
2013-01-01 08:13:00,38.3,36.2,29.41,NNW,345,0.0,0.0,92,0.00,FEW,OVC,0.08,0.0,WeatherDisplay:10.37,2013-01-01 08:13:00,
2013-01-01 08:18:00,38.4,36.0,29.41,NE,53,1.2,1.2,91,0.00,FEW,OVC,0.08,0.0,WeatherDisplay:10.37,2013-01-01 08:18:00,
2013-01-01 08:23:00,38.4,36.0,29.42,NNE,30,0.0,0.0,91,0.00,FEW,OVC,0.08,0.0,WeatherDisplay:10.37,2013-01-01 08:23:00,
2013-01-01 08:28:00,38.3,35.9,29.41,NNE,30,1.2,0.0,91,0.00,FEW,OVC,0.08,0.0,WeatherDisplay:10.37,2013-01-01 08:28:00,
2013-01-01 08:33:00,38.3,35.9,29.42,North,358,0.0,0.0,91,0.00,FEW,OVC,0.08,0.0,WeatherDisplay:10.37,2013-01-01 08:33:00,
2013-01-01 08:38:00,38.3,35.9,29.42,North,351,2.3,2.3,91,0.00,FEW,OVC,0.08,0.0,WeatherDisplay:10.37,2013-01-01 08:38:00,
2013-01-01 08:43:00,38.3,35.9,29.42,NW,323,1.2,1.2,91,0.00,FEW,OVC,0.08,0.0,WeatherDisplay:10.37,2013-01-01 08:43:00,
2013-01-01 08:48:00,38.4,35.7,29.42,NW,317,1.2,1.2,90,0.00,FEW,OVC,0.08,0.0,WeatherDisplay:10.37,2013-01-01 08:48:00,
2013-01-01 08:53:00,38.6,35.9,29.42,NW,317,3.5,3.5,90,0.00,FEW,OVC,0.08,0.0,WeatherDisplay:10.37,2013-01-01 08:53:00,
2013-01-01 08:58:00,38.8,36.1,29.42,NW,319,3.5,3.5,90,0.00,FEW,OVC,0.08,0.0,WeatherDisplay:10.37,2013-01-01 08:58:00,
2013-01-01 09:03:00,39.0,36.3,29.42,NW,308,3.5,3.5,90,0.00,FEW,OVC,0.08,0.0,WeatherDisplay:10.37,2013-01-01 09:03:00,
2013-01-01 09:09:00,39.2,36.5,29.42,WNW,296,3.5,3.5,90,0.00,FEW,OVC,0.08,0.0,WeatherDisplay:10.37,2013-01-01 09:09:00,
2013-01-01 09:13:00,39.3,36.3,29.43,NW,305,4.0,4.0,89,0.00,FEW,OVC,0.08,0.0,WeatherDisplay:10.37,2013-01-01 09:13:00,
2013-01-01 09:19:00,39.3,36.3,29.43,NW,321,3.5,3.5,89,0.00,FEW,OVC,0.08,0.0,WeatherDisplay:10.37,2013-01-01 09:19:00,
2013-01-01 09:24:00,39.5,36.5,29.43,NW,310,3.5,3.5,89,0.00,FEW,OVC,0.08,0.0,WeatherDisplay:10.37,2013-01-01 09:24:00,
2013-01-01 09:29:00,40.1,37.1,29.43,WNW,296,3.5,3.5,89,0.00,FEW,OVC,0.08,0.0,WeatherDisplay:10.37,2013-01-01 09:29:00,
2013-01-01 09:34:00,40.6,37.6,29.44,NW,308,3.5,3.5,89,0.00,FEW,OVC,0.08,0.0,WeatherDisplay:10.37,2013-01-01 09:34:00,
2013-01-01 09:39:00,40.7,37.4,29.44,NNW,330,3.5,3.5,88,0.00,FEW,OVC,0.08,0.0,WeatherDisplay:10.37,2013-01-01 09:39:00,
2013-01-01 09:44:00,40.8,37.5,29.44,NW,308,3.5,3.5,88,0.00,FEW,OVC,0.08,0.0,WeatherDisplay:10.37,2013-01-01 09:44:00,
2013-01-01 09:49:00,40.9,37.6,29.45,NW,325,3.5,3.5,88,0.00,FEW,OVC,0.08,0.0,WeatherDisplay:10.37,2013-01-01 09:49:00,
2013-01-01 09:54:00,41.1,37.5,29.45,NNW,328,2.3,2.3,87,0.00,FEW,OVC,0.08,0.0,WeatherDisplay:10.37,2013-01-01 09:54:00,
2013-01-01 09:59:00,41.0,37.4,29.45,WNW,291,3.5,3.5,87,0.00,FEW,OVC,0.08,0.0,WeatherDisplay:10.37,2013-01-01 09:59:00,
2013-01-01 10:04:00,40.9,37.3,29.45,NNW,340,1.2,1.2,87,0.00,FEW,OVC,0.08,0.0,WeatherDisplay:10.37,2013-01-01 10:04:00,
2013-01-01 10:09:00,40.8,37.5,29.45,WNW,287,2.3,2.3,88,0.00,FEW,OVC,0.08,0.0,WeatherDisplay:10.37,2013-01-01 10:09:00,
2013-01-01 10:14:00,41.2,37.9,29.45,West,260,1.2,1.2,88,0.00,FEW,OVC,0.08,0.0,WeatherDisplay:10.37,2013-01-01 10:14:00,
2013-01-01 10:19:00,41.4,38.1,29.46,NW,307,3.5,3.5,88,0.00,FEW,OVC,0.08,0.0,WeatherDisplay:10.37,2013-01-01 10:19:00,
2013-01-01 10:24:00,41.6,38.0,29.46,NW,304,2.3,2.3,87,0.00,FEW,OVC,0.08,0.0,WeatherDisplay:10.37,2013-01-01 10:24:00,
2013-01-01 10:29:00,41.6,38.0,29.46,NW,316,1.2,1.2,87,0.00,FEW,OVC,0.08,0.0,WeatherDisplay:10.37,2013-01-01 10:29:00,
2013-01-01 10:34:00,41.7,38.1,29.47,NW,310,2.3,2.3,87,0.00,FEW,OVC,0.08,0.0,WeatherDisplay:10.37,2013-01-01 10:34:00,
2013-01-01 10:39:00,42.2,38.3,29.47,NW,316,3.5,3.5,86,0.00,FEW,OVC,0.08,0.0,WeatherDisplay:10.37,2013-01-01 10:39:00,
2013-01-01 10:44:00,42.3,38.4,29.47,NW,305,2.3,2.3,86,0.00,FEW,OVC,0.08,0.0,WeatherDisplay:10.37,2013-01-01 10:44:00,
2013-01-01 10:49:00,42.3,38.7,29.48,WNW,294,2.3,2.3,87,0.00,FEW,OVC,0.08,0.0,WeatherDisplay:10.37,2013-01-01 10:49:00,
2013-01-01 10:54:00,42.5,38.9,29.48,WNW,291,1.2,1.2,87,0.00,FEW,OVC,0.08,0.0,WeatherDisplay:10.37,2013-01-01 10:54:00,
2013-01-01 10:59:00,42.7,39.1,29.48,NNW,337,2.3,2.3,87,0.00,FEW,OVC,0.08,0.0,WeatherDisplay:10.37,2013-01-01 10:59:00,
2013-01-01 11:04:00,42.9,39.0,29.48,WNW,298,2.3,2.3,86,0.00,FEW,OVC,0.08,0.0,WeatherDisplay:10.37,2013-01-01 11:04:00,
2013-01-01 11:09:00,42.9,38.4,29.48,NW,325,3.5,3.5,84,0.00,FEW,OVC,0.08,0.0,WeatherDisplay:10.37,2013-01-01 11:09:00,
2013-01-01 11:14:00,42.8,38.3,29.48,NNW,348,4.6,4.6,84,0.00,FEW,OVC,0.08,0.0,WeatherDisplay:10.37,2013-01-01 11:14:00,
2013-01-01 11:19:00,42.6,38.1,29.49,NNW,333,4.6,4.6,84,0.00,FEW,OVC,0.08,0.0,WeatherDisplay:10.37,2013-01-01 11:19:00,
2013-01-01 11:24:00,42.3,37.8,29.49,NW,308,3.5,3.5,84,0.00,FEW,OVC,0.08,0.0,WeatherDisplay:10.37,2013-01-01 11:24:00,
2013-01-01 11:29:00,42.4,38.2,29.49,NW,308,4.0,4.0,85,0.00,FEW,OVC,0.08,0.0,WeatherDisplay:10.37,2013-01-01 11:29:00,
2013-01-01 11:34:00,42.7,38.2,29.49,NW,304,3.5,3.5,84,0.00,FEW,OVC,0.08,0.0,WeatherDisplay:10.37,2013-01-01 11:34:00,
2013-01-01 11:39:00,43.1,38.3,29.50,WNW,301,5.8,5.8,83,0.00,FEW,OVC,0.08,0.0,WeatherDisplay:10.37,2013-01-01 11:39:00,
2013-01-01 11:44:00,43.3,38.2,29.50,NW,314,4.6,4.6,82,0.00,FEW,OVC,0.08,0.0,WeatherDisplay:10.37,2013-01-01 11:44:00,
2013-01-01 11:49:00,43.5,38.4,29.51,WNW,303,3.5,3.5,82,0.00,FEW,OVC,0.08,0.0,WeatherDisplay:10.37,2013-01-01 11:49:00,
2013-01-01 11:54:00,43.6,38.2,29.51,NW,318,5.8,5.8,81,0.00,FEW,OVC,0.08,0.0,WeatherDisplay:10.37,2013-01-01 11:54:00,
2013-01-01 11:59:00,43.8,38.0,29.51,NW,319,6.9,6.9,80,0.00,FEW,OVC,0.08,0.0,WeatherDisplay:10.37,2013-01-01 11:59:00,
2013-01-01 12:04:00,43.9,38.4,29.51,WNW,293,3.5,3.5,81,0.00,FEW,OVC,0.08,0.0,WeatherDisplay:10.37,2013-01-01 12:04:00,
2013-01-01 12:09:00,44.1,38.3,29.51,NNW,328,4.6,4.6,80,0.00,FEW,OVC,0.08,0.0,WeatherDisplay:10.37,2013-01-01 12:09:00,
2013-01-01 12:14:00,44.1,38.3,29.51,NNW,328,4.6,4.6,80,0.00,FEW,OVC,0.08,0.0,WeatherDisplay:10.37,2013-01-01 12:14:00,
2013-01-01 12:19:00,44.1,38.6,29.51,NW,312,4.6,4.6,81,0.00,FEW,OVC,0.08,0.0,WeatherDisplay:10.37,2013-01-01 12:19:00,
2013-01-01 12:24:00,44.1,38.6,29.51,NW,310,4.6,4.6,81,0.00,FEW,OVC,0.08,0.0,WeatherDisplay:10.37,2013-01-01 12:24:00,
2013-01-01 12:29:00,44.2,38.7,29.52,West,276,4.0,4.0,81,0.00,FEW,OVC,0.08,0.0,WeatherDisplay:10.37,2013-01-01 12:29:00,
2013-01-01 12:35:00,44.3,38.8,29.52,WNW,288,3.5,3.5,81,0.00,FEW,OVC,0.08,0.0,WeatherDisplay:10.37,2013-01-01 12:35:00,
2013-01-01 12:40:00,44.4,38.9,29.52,NW,314,3.5,3.5,81,0.00,FEW,OVC,0.08,0.0,WeatherDisplay:10.37,2013-01-01 12:40:00,
2013-01-01 12:45:00,44.5,39.0,29.52,West,274,2.3,2.4,81,0.00,FEW,OVC,0.08,0.0,WeatherDisplay:10.37,2013-01-01 12:45:00,
2013-01-01 12:50:00,44.5,38.7,29.52,NNW,338,4.0,4.0,80,0.00,FEW,OVC,0.08,0.0,WeatherDisplay:10.37,2013-01-01 12:50:00,
2013-01-01 12:55:00,44.5,38.7,29.52,WSW,250,3.5,3.5,80,0.00,FEW,OVC,0.08,0.0,WeatherDisplay:10.37,2013-01-01 12:55:00,
2013-01-01 13:00:00,44.8,39.0,29.52,NW,318,2.0,2.0,80,0.00,FEW,OVC,0.08,0.0,WeatherDisplay:10.37,2013-01-01 13:00:00,
2013-01-01 13:05:00,44.7,38.6,29.53,WNW,300,3.5,3.5,79,0.00,FEW,OVC,0.08,0.0,WeatherDisplay:10.37,2013-01-01 13:05:00,
2013-01-01 13:10:00,44.5,38.7,29.53,NNW,343,2.3,2.3,80,0.00,FEW,OVC,0.08,0.0,WeatherDisplay:10.37,2013-01-01 13:10:00,
2013-01-01 13:15:00,44.2,38.4,29.53,NW,326,0.0,2.0,80,0.00,FEW,OVC,0.08,0.0,WeatherDisplay:10.37,2013-01-01 13:15:00,
2013-01-01 13:20:00,44.0,38.5,29.54,North,356,1.2,1.2,81,0.00,FEW,OVC,0.08,0.0,WeatherDisplay:10.37,2013-01-01 13:20:00,
2013-01-01 13:25:00,43.9,38.4,29.54,NNE,12,1.2,1.2,81,0.00,FEW,OVC,0.08,0.0,WeatherDisplay:10.37,2013-01-01 13:25:00,
2013-01-01 13:30:00,44.0,38.5,29.54,NW,323,1.2,1.2,81,0.00,FEW,OVC,0.08,0.0,WeatherDisplay:10.37,2013-01-01 13:30:00,
2013-01-01 13:35:00,44.0,38.9,29.54,NNW,345,2.3,2.3,82,0.00,FEW,OVC,0.08,0.0,WeatherDisplay:10.37,2013-01-01 13:35:00,
2013-01-01 13:40:00,44.1,39.0,29.54,NW,304,1.2,1.2,82,0.00,FEW,OVC,0.08,0.0,WeatherDisplay:10.37,2013-01-01 13:40:00,
2013-01-01 13:45:00,44.2,39.0,29.55,WNW,294,0.0,1.0,82,0.00,FEW,OVC,0.08,0.0,WeatherDisplay:10.37,2013-01-01 13:45:00,
2013-01-01 13:50:00,44.1,39.0,29.55,WNW,302,2.3,2.3,82,0.00,FEW,OVC,0.08,0.0,WeatherDisplay:10.37,2013-01-01 13:50:00,
2013-01-01 13:55:00,44.1,39.0,29.55,SW,221,2.3,2.3,82,0.00,FEW,OVC,0.08,0.0,WeatherDisplay:10.37,2013-01-01 13:55:00,
2013-01-01 14:00:00,44.1,38.9,29.56,WNW,302,0.0,2.0,82,0.00,FEW,OVC,0.08,0.0,WeatherDisplay:10.37,2013-01-01 14:00:00,
2013-01-01 14:05:00,44.0,39.2,29.56,WNW,289,0.0,0.0,83,0.00,FEW,OVC,0.08,0.0,WeatherDisplay:10.37,2013-01-01 14:05:00,
2013-01-01 14:10:00,43.9,39.1,29.56,NW,325,2.3,2.3,83,0.00,FEW,OVC,0.08,0.0,WeatherDisplay:10.37,2013-01-01 14:10:00,
2013-01-01 14:15:00,44.0,38.9,29.56,NW,309,1.0,5.0,82,0.00,FEW,OVC,0.08,0.0,WeatherDisplay:10.37,2013-01-01 14:15:00,
2013-01-01 14:20:00,44.1,39.3,29.57,NW,304,1.2,1.9,83,0.00,FEW,OVC,0.08,0.0,WeatherDisplay:10.37,2013-01-01 14:20:00,
2013-01-01 14:25:00,44.4,39.6,29.57,WNW,288,2.3,2.3,83,0.00,SCT,OVC,0.08,0.0,WeatherDisplay:10.37,2013-01-01 14:25:00,
2013-01-01 14:30:00,44.5,39.4,29.58,NW,310,1.0,3.0,82,0.00,SCT,OVC,0.08,0.0,WeatherDisplay:10.37,2013-01-01 14:30:00,
2013-01-01 14:35:00,44.5,39.3,29.58,WNW,290,1.2,1.2,82,0.00,SCT,OVC,0.08,0.0,WeatherDisplay:10.37,2013-01-01 14:35:00,
2013-01-01 14:40:00,44.5,39.3,29.58,WNW,286,0.0,1.0,82,0.00,SCT,OVC,0.08,0.0,WeatherDisplay:10.37,2013-01-01 14:40:00,
2013-01-01 14:45:00,44.3,39.5,29.58,WNW,282,0.0,1.0,83,0.00,SCT,OVC,0.08,0.0,WeatherDisplay:10.37,2013-01-01 14:45:00,
2013-01-01 14:50:00,44.1,39.3,29.59,WNW,302,1.0,2.0,83,0.00,SCT,OVC,0.08,0.0,WeatherDisplay:10.37,2013-01-01 14:50:00,
2013-01-01 14:55:00,43.9,39.1,29.59,NW,320,0.0,1.0,83,0.00,SCT,OVC,0.08,0.0,WeatherDisplay:10.37,2013-01-01 14:55:00,
2013-01-01 15:00:00,43.6,39.1,29.60,NW,314,0.0,0.0,84,0.00,SCT,OVC,0.08,0.0,WeatherDisplay:10.37,2013-01-01 15:00:00,
2013-01-01 15:05:00,43.5,38.9,29.60,NW,314,0.0,0.0,84,0.00,SCT,OVC,0.08,0.0,WeatherDisplay:10.37,2013-01-01 15:05:00,
2013-01-01 15:10:00,43.2,38.7,29.61,WNW,284,0.0,0.0,84,0.00,SCT,OVC,0.08,0.0,WeatherDisplay:10.37,2013-01-01 15:10:00,
2013-01-01 15:15:00,42.9,38.4,29.61,NW,326,1.2,1.2,84,0.00,SCT,OVC,0.08,0.0,WeatherDisplay:10.37,2013-01-01 15:15:00,
2013-01-01 15:20:00,42.6,38.4,29.62,NW,326,1.2,1.2,85,0.00,SCT,OVC,0.08,0.0,WeatherDisplay:10.37,2013-01-01 15:20:00,
2013-01-01 15:25:00,42.3,38.1,29.62,NW,318,0.0,1.0,85,0.00,SCT,OVC,0.08,0.0,WeatherDisplay:10.37,2013-01-01 15:25:00,
2013-01-01 15:30:00,42.1,38.2,29.62,NNW,338,2.3,2.3,86,0.00,SCT,OVC,0.08,0.0,WeatherDisplay:10.37,2013-01-01 15:30:00,
2013-01-01 15:35:00,42.0,38.1,29.63,NW,311,1.0,2.0,86,0.00,SCT,OVC,0.08,0.0,WeatherDisplay:10.37,2013-01-01 15:35:00,
2013-01-01 15:40:00,41.9,38.0,29.63,NW,309,1.0,3.0,86,0.00,SCT,OVC,0.08,0.0,WeatherDisplay:10.37,2013-01-01 15:40:00,
2013-01-01 15:45:00,41.7,37.8,29.63,NW,304,1.0,2.0,86,0.00,SCT,OVC,0.08,0.0,WeatherDisplay:10.37,2013-01-01 15:45:00,
2013-01-01 15:50:00,41.5,37.6,29.63,WNW,299,1.0,2.0,86,0.00,SCT,OVC,0.08,0.0,WeatherDisplay:10.37,2013-01-01 15:50:00,
2013-01-01 15:55:00,41.3,37.4,29.64,WNW,299,1.0,3.0,86,0.00,SCT,OVC,0.08,0.0,WeatherDisplay:10.37,2013-01-01 15:55:00,
2013-01-01 16:00:00,41.3,37.4,29.65,NW,316,1.2,0.0,86,0.00,SCT,OVC,0.08,0.0,WeatherDisplay:10.37,2013-01-01 16:00:00,
2013-01-01 16:05:00,41.1,37.2,29.65,NW,312,0.0,0.0,86,0.00,SCT,OVC,0.08,0.0,WeatherDisplay:10.37,2013-01-01 16:05:00,
2013-01-01 16:10:00,40.9,37.3,29.65,NW,322,1.2,0.0,87,0.00,SCT,OVC,0.08,0.0,WeatherDisplay:10.37,2013-01-01 16:10:00,
2013-01-01 16:15:00,40.9,37.3,29.66,WNW,303,1.2,1.2,87,0.00,SCT,OVC,0.08,0.0,WeatherDisplay:10.37,2013-01-01 16:15:00,
2013-01-01 16:20:00,41.1,37.2,29.66,WNW,298,3.5,3.5,86,0.00,SCT,OVC,0.08,0.0,WeatherDisplay:10.37,2013-01-01 16:20:00,
2013-01-01 16:25:00,41.2,37.3,29.66,NW,305,1.0,3.0,86,0.00,SCT,OVC,0.08,0.0,WeatherDisplay:10.37,2013-01-01 16:25:00,
2013-01-01 16:30:00,41.1,37.2,29.67,NW,310,2.3,2.3,86,0.00,SCT,OVC,0.08,0.0,WeatherDisplay:10.37,2013-01-01 16:30:00,
2013-01-01 16:35:00,41.0,37.1,29.67,WNW,299,1.0,2.0,86,0.00,SCT,OVC,0.08,0.0,WeatherDisplay:10.37,2013-01-01 16:35:00,
2013-01-01 16:40:00,40.9,37.0,29.67,NW,304,1.2,1.2,86,0.00,FEW,OVC,0.08,0.0,WeatherDisplay:10.37,2013-01-01 16:40:00,
2013-01-01 16:45:00,40.7,36.8,29.67,NW,305,1.0,2.0,86,0.00,FEW,OVC,0.08,0.0,WeatherDisplay:10.37,2013-01-01 16:45:00,
2013-01-01 16:50:00,40.5,37.0,29.68,NW,304,1.0,3.0,87,0.00,FEW,OVC,0.08,0.0,WeatherDisplay:10.37,2013-01-01 16:50:00,
2013-01-01 16:55:00,40.4,36.8,29.68,NW,305,2.0,3.0,87,0.00,FEW,OVC,0.08,0.0,WeatherDisplay:10.37,2013-01-01 16:55:00,
2013-01-01 17:00:00,40.3,36.7,29.68,NW,312,2.0,3.0,87,0.00,FEW,OVC,0.08,0.0,WeatherDisplay:10.37,2013-01-01 17:00:00,
2013-01-01 17:05:00,40.3,36.7,29.69,NW,314,3.5,3.5,87,0.00,FEW,OVC,0.08,0.0,WeatherDisplay:10.37,2013-01-01 17:05:00,
2013-01-01 17:10:00,40.7,37.1,29.69,WNW,285,3.5,3.5,87,0.00,CLR,OVC,0.08,0.0,WeatherDisplay:10.37,2013-01-01 17:10:00,
2013-01-01 17:15:00,40.8,37.2,29.69,NW,305,2.0,5.0,87,0.00,CLR,OVC,0.08,0.0,WeatherDisplay:10.37,2013-01-01 17:15:00,
2013-01-01 17:20:00,40.9,37.0,29.69,NW,316,3.5,3.5,86,0.00,CLR,OVC,0.08,0.0,WeatherDisplay:10.37,2013-01-01 17:20:00,
2013-01-01 17:25:00,40.9,37.0,29.69,NW,308,2.0,4.0,86,0.00,CLR,OVC,0.08,0.0,WeatherDisplay:10.37,2013-01-01 17:25:00,
2013-01-01 17:30:00,40.9,37.0,29.69,NW,309,2.0,4.0,86,0.00,CLR,OVC,0.08,0.0,WeatherDisplay:10.37,2013-01-01 17:30:00,
2013-01-01 17:35:00,40.8,36.9,29.70,NW,309,2.0,4.0,86,0.00,CLR,OVC,0.08,0.0,WeatherDisplay:10.37,2013-01-01 17:35:00,
2013-01-01 17:40:00,40.9,37.0,29.70,WNW,298,2.0,5.0,86,0.00,CLR,OVC,0.08,0.0,WeatherDisplay:10.37,2013-01-01 17:40:00,
2013-01-01 17:45:00,40.9,37.0,29.71,NW,304,3.5,3.5,86,0.00,CLR,OVC,0.08,0.0,WeatherDisplay:10.37,2013-01-01 17:45:00,
2013-01-01 17:50:00,41.0,36.8,29.71,NW,308,3.5,3.5,85,0.00,CLR,OVC,0.08,0.0,WeatherDisplay:10.37,2013-01-01 17:50:00,
2013-01-01 17:55:00,41.0,36.8,29.71,NW,307,1.0,3.0,85,0.00,CLR,OVC,0.08,0.0,WeatherDisplay:10.37,2013-01-01 17:55:00,
2013-01-01 18:00:00,40.8,36.6,29.71,NW,316,2.3,2.3,85,0.00,CLR,OVC,0.08,0.0,WeatherDisplay:10.37,2013-01-01 18:00:00,
2013-01-01 18:05:00,40.8,36.6,29.72,NW,311,2.3,2.3,85,0.00,CLR,OVC,0.08,0.0,WeatherDisplay:10.37,2013-01-01 18:05:00,
2013-01-01 18:10:00,40.8,36.6,29.73,NW,309,0.0,3.0,85,0.00,CLR,OVC,0.08,0.0,WeatherDisplay:10.37,2013-01-01 18:10:00,
2013-01-01 18:15:00,40.6,36.5,29.74,NW,309,0.0,1.0,85,0.00,CLR,OVC,0.08,0.0,WeatherDisplay:10.37,2013-01-01 18:15:00,
2013-01-01 18:20:00,40.4,36.3,29.74,NW,310,1.0,1.0,85,0.00,CLR,OVC,0.08,0.0,WeatherDisplay:10.37,2013-01-01 18:20:00,
2013-01-01 18:25:00,40.5,36.3,29.74,NW,309,0.0,1.0,85,0.00,CLR,OVC,0.08,0.0,WeatherDisplay:10.37,2013-01-01 18:25:00,
2013-01-01 18:30:00,40.3,36.2,29.75,NW,305,0.0,1.0,85,0.00,CLR,OVC,0.08,0.0,WeatherDisplay:10.37,2013-01-01 18:30:00,
2013-01-01 18:35:00,40.2,36.1,29.75,WNW,300,0.0,1.0,85,0.00,CLR,OVC,0.08,0.0,WeatherDisplay:10.37,2013-01-01 18:35:00,
2013-01-01 18:40:00,40.0,35.9,29.76,WNW,301,0.0,0.0,85,0.00,CLR,OVC,0.08,0.0,WeatherDisplay:10.37,2013-01-01 18:40:00,
2013-01-01 18:45:00,39.7,35.5,29.76,WNW,301,1.0,2.0,85,0.00,CLR,OVC,0.08,0.0,WeatherDisplay:10.37,2013-01-01 18:45:00,
2013-01-01 18:50:00,39.6,36.0,29.76,SSE,149,1.2,1.2,87,0.00,CLR,OVC,0.08,0.0,WeatherDisplay:10.37,2013-01-01 18:50:00,
2013-01-01 18:55:00,39.6,35.8,29.77,SE,143,0.0,0.0,86,0.00,CLR,OVC,0.08,0.0,WeatherDisplay:10.37,2013-01-01 18:55:00,
2013-01-01 19:00:00,39.5,35.7,29.77,ESE,122,0.0,0.0,86,0.00,CLR,OVC,0.08,0.0,WeatherDisplay:10.37,2013-01-01 19:00:00,
2013-01-01 19:18:00,39.2,35.7,29.79,SE,143,2.3,2.3,87,0.00,CLR,OVC,0.08,0.0,WeatherDisplay:10.37,2013-01-01 19:18:00,
2013-01-01 19:23:00,39.1,35.6,29.79,SE,128,1.2,0.0,87,0.00,CLR,OVC,0.08,0.0,WeatherDisplay:10.37,2013-01-01 19:23:00,
2013-01-01 19:28:00,38.9,35.4,29.80,SE,137,1.2,1.2,87,0.00,CLR,OVC,0.08,0.0,WeatherDisplay:10.37,2013-01-01 19:28:00,
2013-01-01 19:33:00,39.0,35.7,29.80,North,350,1.2,1.2,88,0.00,CLR,OVC,0.08,0.0,WeatherDisplay:10.37,2013-01-01 19:33:00,
2013-01-01 19:38:00,39.2,35.9,29.80,NW,326,0.0,0.0,88,0.00,CLR,OVC,0.08,0.0,WeatherDisplay:10.37,2013-01-01 19:38:00,
2013-01-01 19:43:00,38.9,35.6,29.80,NW,316,0.0,0.0,88,0.00,CLR,OVC,0.08,0.0,WeatherDisplay:10.37,2013-01-01 19:43:00,
2013-01-01 19:48:00,38.6,35.4,29.80,WNW,290,2.3,2.3,88,0.00,CLR,OVC,0.08,0.0,WeatherDisplay:10.37,2013-01-01 19:48:00,
2013-01-01 19:53:00,38.9,35.9,29.81,NW,309,2.3,2.3,89,0.00,CLR,OVC,0.08,0.0,WeatherDisplay:10.37,2013-01-01 19:53:00,
2013-01-01 19:58:00,39.5,36.2,29.81,NW,323,2.3,2.3,88,0.00,CLR,OVC,0.08,0.0,WeatherDisplay:10.37,2013-01-01 19:58:00,
2013-01-01 20:03:00,40.0,36.7,29.81,NNW,332,3.5,3.5,88,0.00,CLR,OVC,0.08,0.0,WeatherDisplay:10.37,2013-01-01 20:03:00,
2013-01-01 20:08:00,40.2,36.6,29.82,West,273,2.3,2.3,87,0.00,CLR,OVC,0.08,0.0,WeatherDisplay:10.37,2013-01-01 20:08:00,
2013-01-01 20:13:00,40.3,36.7,29.82,NNW,340,2.3,2.3,87,0.00,CLR,OVC,0.08,0.0,WeatherDisplay:10.37,2013-01-01 20:13:00,
2013-01-01 20:18:00,40.3,36.4,29.82,WNW,291,1.2,1.2,86,0.00,CLR,OVC,0.08,0.0,WeatherDisplay:10.37,2013-01-01 20:18:00,
2013-01-01 20:23:00,40.1,36.2,29.82,WNW,285,1.2,1.2,86,0.00,CLR,OVC,0.08,0.0,WeatherDisplay:10.37,2013-01-01 20:23:00,
2013-01-01 20:28:00,39.6,35.8,29.82,WNW,285,0.0,0.0,86,0.00,CLR,OVC,0.08,0.0,WeatherDisplay:10.37,2013-01-01 20:28:00,
2013-01-01 20:33:00,39.1,35.6,29.83,WNW,285,0.0,0.0,87,0.00,CLR,OVC,0.08,0.0,WeatherDisplay:10.37,2013-01-01 20:33:00,
2013-01-01 20:38:00,38.5,35.0,29.83,WNW,285,0.0,0.0,87,0.00,CLR,OVC,0.08,0.0,WeatherDisplay:10.37,2013-01-01 20:38:00,
2013-01-01 20:43:00,38.4,35.4,29.84,WNW,295,1.2,0.0,89,0.00,CLR,OVC,0.08,0.0,WeatherDisplay:10.37,2013-01-01 20:43:00,
2013-01-01 20:48:00,38.4,35.4,29.84,WNW,295,0.0,0.0,89,0.00,CLR,OVC,0.08,0.0,WeatherDisplay:10.37,2013-01-01 20:48:00,
2013-01-01 20:53:00,38.4,35.4,29.84,WNW,295,0.0,0.0,89,0.00,CLR,OVC,0.08,0.0,WeatherDisplay:10.37,2013-01-01 20:53:00,
2013-01-01 20:58:00,38.5,35.5,29.84,ESE,122,1.2,0.0,89,0.00,CLR,OVC,0.08,0.0,WeatherDisplay:10.37,2013-01-01 20:58:00,
2013-01-01 21:03:00,38.5,35.5,29.85,SE,124,0.0,0.0,89,0.00,CLR,OVC,0.08,0.0,WeatherDisplay:10.37,2013-01-01 21:03:00,
2013-01-01 21:08:00,38.3,35.3,29.85,ESE,113,0.0,0.0,89,0.00,CLR,OVC,0.08,0.0,WeatherDisplay:10.37,2013-01-01 21:08:00,
2013-01-01 21:13:00,38.1,34.9,29.85,ESE,113,0.0,0.0,88,0.00,CLR,OVC,0.08,0.0,WeatherDisplay:10.37,2013-01-01 21:13:00,
2013-01-01 21:18:00,37.9,34.9,29.86,ESE,113,0.0,0.0,89,0.00,CLR,OVC,0.08,0.0,WeatherDisplay:10.37,2013-01-01 21:18:00,
2013-01-01 21:23:00,37.7,34.8,29.86,ESE,113,0.0,0.0,89,0.00,CLR,OVC,0.08,0.0,WeatherDisplay:10.37,2013-01-01 21:23:00,
2013-01-01 21:28:00,37.7,35.0,29.86,ESE,113,0.0,0.0,90,0.00,CLR,OVC,0.08,0.0,WeatherDisplay:10.37,2013-01-01 21:28:00,
2013-01-01 21:33:00,37.0,33.5,29.86,ESE,113,0.0,0.0,87,0.00,CLR,OVC,0.08,0.0,WeatherDisplay:10.37,2013-01-01 21:33:00,
2013-01-01 21:38:00,36.5,33.8,29.87,ESE,113,1.2,1.2,90,0.00,CLR,OVC,0.08,0.0,WeatherDisplay:10.37,2013-01-01 21:38:00,
2013-01-01 21:43:00,36.8,34.4,29.87,ESE,110,1.2,0.0,91,0.00,CLR,OVC,0.08,0.0,WeatherDisplay:10.37,2013-01-01 21:43:00,
2013-01-01 21:48:00,36.9,34.5,29.87,ESE,110,0.0,0.0,91,0.00,CLR,OVC,0.08,0.0,WeatherDisplay:10.37,2013-01-01 21:48:00,
2013-01-01 21:53:00,37.2,34.8,29.88,ESE,110,0.0,0.0,91,0.00,CLR,OVC,0.08,0.0,WeatherDisplay:10.37,2013-01-01 21:53:00,
2013-01-01 21:58:00,37.2,34.5,29.88,ESE,110,0.0,0.0,90,0.00,CLR,OVC,0.08,0.0,WeatherDisplay:10.37,2013-01-01 21:58:00,
2013-01-01 22:03:00,37.1,34.7,29.88,East,97,0.0,0.3,91,0.00,CLR,OVC,0.08,0.0,WeatherDisplay:10.37,2013-01-01 22:03:00,
2013-01-01 22:08:00,37.6,35.5,29.89,NNW,340,1.2,1.2,92,0.00,CLR,OVC,0.08,0.0,WeatherDisplay:10.37,2013-01-01 22:08:00,
2013-01-01 22:14:00,38.5,36.1,29.89,NW,304,0.0,0.0,91,0.00,CLR,OVC,0.08,0.0,WeatherDisplay:10.37,2013-01-01 22:14:00,
2013-01-01 22:19:00,38.9,35.9,29.90,WNW,302,0.0,0.0,89,0.00,CLR,OVC,0.08,0.0,WeatherDisplay:10.37,2013-01-01 22:19:00,
2013-01-01 22:24:00,38.9,35.6,29.90,WNW,302,1.2,0.0,88,0.00,CLR,OVC,0.08,0.0,WeatherDisplay:10.37,2013-01-01 22:24:00,
2013-01-01 22:29:00,38.8,35.8,29.90,NW,316,1.2,0.0,89,0.00,CLR,OVC,0.08,0.0,WeatherDisplay:10.37,2013-01-01 22:29:00,
2013-01-01 22:34:00,39.0,36.0,29.90,WNW,303,3.5,3.5,89,0.00,CLR,OVC,0.08,0.0,WeatherDisplay:10.37,2013-01-01 22:34:00,
2013-01-01 22:39:00,39.4,36.1,29.90,WNW,301,2.3,2.3,88,0.00,CLR,OVC,0.08,0.0,WeatherDisplay:10.37,2013-01-01 22:39:00,
2013-01-01 22:44:00,39.2,35.9,29.90,NW,312,1.2,1.2,88,0.00,CLR,OVC,0.08,0.0,WeatherDisplay:10.37,2013-01-01 22:44:00,
2013-01-01 22:49:00,39.0,35.7,29.90,NW,310,1.2,1.2,88,0.00,CLR,OVC,0.08,0.0,WeatherDisplay:10.37,2013-01-01 22:49:00,
2013-01-01 22:54:00,39.1,36.1,29.90,NW,310,0.0,0.0,89,0.00,CLR,OVC,0.08,0.0,WeatherDisplay:10.37,2013-01-01 22:54:00,
2013-01-01 22:59:00,39.0,35.7,29.91,NW,310,0.0,0.0,88,0.00,CLR,OVC,0.08,0.0,WeatherDisplay:10.37,2013-01-01 22:59:00,
2013-01-01 23:04:00,38.8,35.6,29.91,NW,311,0.0,0.0,88,0.00,CLR,OVC,0.08,0.0,WeatherDisplay:10.37,2013-01-01 23:04:00,
2013-01-01 23:09:00,38.7,35.7,29.91,NW,310,0.0,0.0,89,0.00,CLR,OVC,0.08,0.0,WeatherDisplay:10.37,2013-01-01 23:09:00,
2013-01-01 23:14:00,38.7,35.7,29.91,NW,310,0.0,0.0,89,0.00,CLR,OVC,0.08,0.0,WeatherDisplay:10.37,2013-01-01 23:14:00,
2013-01-01 23:19:00,38.7,35.7,29.92,NW,310,0.0,0.0,89,0.00,CLR,OVC,0.08,0.0,WeatherDisplay:10.37,2013-01-01 23:19:00,
2013-01-01 23:24:00,38.6,35.6,29.92,NW,310,0.0,0.0,89,0.00,CLR,OVC,0.08,0.0,WeatherDisplay:10.37,2013-01-01 23:24:00,
2013-01-01 23:29:00,38.3,35.3,29.92,NW,311,0.0,0.0,89,0.00,CLR,OVC,0.08,0.0,WeatherDisplay:10.37,2013-01-01 23:29:00,
2013-01-01 23:34:00,38.1,35.1,29.92,NW,310,0.0,0.0,89,0.00,CLR,OVC,0.08,0.0,WeatherDisplay:10.37,2013-01-01 23:34:00,
2013-01-01 23:39:00,37.9,34.9,29.93,NW,310,0.0,0.0,89,0.00,CLR,OVC,0.08,0.0,WeatherDisplay:10.37,2013-01-01 23:39:00,
2013-01-01 23:44:00,37.9,35.5,29.93,NW,310,0.0,0.0,91,0.00,CLR,OVC,0.08,0.0,WeatherDisplay:10.37,2013-01-01 23:44:00,
2013-01-01 23:49:00,38.4,36.0,29.93,NW,310,0.0,0.0,91,0.00,CLR,OVC,0.08,0.0,WeatherDisplay:10.37,2013-01-01 23:49:00,
2013-01-01 23:54:00,38.7,36.3,29.93,SW,226,0.0,0.0,91,0.00,CLR,OVC,0.08,0.0,WeatherDisplay:10.37,2013-01-01 23:54:00,
2013-01-01 23:59:00,39.0,36.3,29.93,SW,228,0.0,0.0,90,0.00,CLR,OVC,0.08,0.0,WeatherDisplay:10.37,2013-01-01 23:59:00,